createdAt,value
2023-04-23T00:01:59.854Z,4.13
2023-04-23T00:07:10.406Z,4.18
2023-04-23T00:12:14.906Z,5.85
2023-04-23T00:17:18.742Z,4.88
2023-04-23T00:22:24.998Z,4.13
2023-04-23T00:27:30.093Z,4.30
2023-04-23T00:32:33.818Z,4.10
2023-04-23T00:37:38.793Z,4.03
2023-04-23T00:42:42.640Z,3.85
2023-04-23T00:47:49.276Z,3.70
2023-04-23T00:52:53.978Z,3.47
2023-04-23T00:57:57.977Z,3.55
2023-04-23T01:03:02.370Z,3.10
2023-04-23T01:08:07.799Z,3.33
2023-04-23T01:13:12.556Z,3.30
2023-04-23T01:18:17.801Z,3.45
2023-04-23T01:23:23.786Z,3.50
2023-04-23T01:28:28.814Z,3.70
2023-04-23T01:33:33.971Z,3.58
2023-04-23T01:38:41.602Z,3.33
2023-04-23T01:43:46.647Z,4.10
2023-04-23T01:48:50.590Z,3.58
2023-04-23T01:53:58.016Z,3.90
2023-04-23T01:59:02.603Z,3.83
2023-04-23T02:04:08.601Z,4.22
2023-04-23T02:09:13.941Z,4.30
2023-04-23T02:14:18.879Z,3.97
2023-04-23T02:19:22.555Z,3.75
2023-04-23T02:24:31.132Z,3.47
2023-04-23T02:29:34.651Z,3.83
2023-04-23T02:34:39.019Z,3.53
2023-04-23T02:39:44.390Z,3.75
2023-04-23T02:44:47.794Z,3.63
2023-04-23T02:49:51.777Z,3.90
2023-04-23T02:54:57.809Z,3.45
2023-04-23T03:00:01.452Z,3.65
2023-04-23T03:05:07.486Z,3.53
2023-04-23T03:10:13.490Z,3.38
2023-04-23T03:15:18.181Z,3.50
2023-04-23T03:20:22.157Z,3.70
2023-04-23T03:25:27.331Z,3.40
2023-04-23T03:30:31.657Z,3.42
2023-04-23T03:35:36.271Z,3.53
2023-04-23T03:40:42.536Z,3.60
2023-04-23T03:45:46.070Z,3.25
2023-04-23T03:50:49.536Z,3.67
2023-04-23T03:55:55.016Z,3.88
2023-04-23T04:00:58.953Z,3.28
2023-04-23T04:06:03.169Z,3.38
2023-04-23T04:11:08.413Z,3.60
2023-04-23T04:16:14.537Z,4.10
2023-04-23T04:21:19.398Z,4.10
2023-04-23T04:26:25.571Z,3.97
2023-04-23T04:31:31.356Z,3.72
2023-04-23T04:36:35.784Z,3.95
2023-04-23T04:41:41.036Z,3.35
2023-04-23T04:46:44.581Z,3.22
2023-04-23T04:51:48.164Z,3.05
2023-04-23T04:56:53.222Z,3.25
2023-04-23T05:01:56.827Z,3.50
2023-04-23T05:07:00.876Z,4.22
2023-04-23T05:12:07.668Z,3.53
2023-04-23T05:17:12.550Z,3.05
2023-04-23T05:22:18.589Z,3.80
2023-04-23T05:27:51.954Z,2.92
2023-04-23T05:32:59.487Z,2.70
2023-04-23T05:38:02.934Z,2.20
2023-04-23T05:43:08.325Z,1.70
2023-04-23T05:48:25.325Z,1.60
2023-04-23T05:53:35.096Z,2.25
2023-04-23T05:58:40.604Z,2.50
2023-04-23T06:03:47.719Z,2.03
2023-04-23T06:08:52.732Z,1.80
2023-04-23T06:13:58.877Z,1.73
2023-04-23T06:19:03.827Z,2.00
2023-04-23T06:24:08.561Z,2.13
2023-04-23T06:29:13.429Z,1.90
2023-04-23T06:34:17.212Z,1.75
2023-04-23T06:39:21.058Z,1.63
2023-04-23T06:44:27.441Z,2.30
2023-04-23T06:49:30.691Z,2.20
2023-04-23T06:54:36.390Z,1.90
2023-04-23T06:59:43.636Z,1.80
2023-04-23T07:04:48.261Z,1.80
2023-04-23T07:09:52.922Z,1.50
2023-04-23T07:14:59.004Z,1.58
2023-04-23T07:20:05.216Z,1.50
2023-04-23T07:25:10.590Z,1.60
2023-04-23T07:30:17.358Z,1.30
2023-04-23T07:35:21.154Z,1.40
2023-04-23T07:40:24.670Z,1.80
2023-04-23T07:45:29.465Z,1.60
2023-04-23T07:50:32.850Z,1.70
2023-04-23T07:55:36.780Z,1.55
2023-04-23T08:00:41.984Z,1.52
2023-04-23T08:05:46.931Z,1.30
2023-04-23T08:10:50.595Z,1.52
2023-04-23T08:15:55.487Z,1.40
2023-04-23T08:20:59.214Z,1.50
2023-04-23T08:26:03.003Z,1.40
2023-04-23T08:31:22.703Z,1.40
2023-04-23T08:36:30.086Z,1.00
2023-04-23T08:41:40.490Z,1.10
2023-04-23T08:46:46.858Z,1.20
2023-04-23T08:51:51.961Z,1.10
2023-04-23T08:56:58.811Z,1.10
2023-04-23T09:02:10.113Z,1.27
2023-04-23T09:07:16.147Z,1.20
2023-04-23T09:12:20.262Z,1.60
2023-04-23T09:17:29.729Z,1.63
2023-04-23T09:22:46.570Z,1.50
2023-04-23T09:27:52.172Z,1.50
2023-04-23T09:32:57.315Z,1.65
2023-04-23T09:38:05.188Z,1.70
2023-04-23T09:43:12.280Z,1.58
2023-04-23T09:48:17.862Z,2.25
2023-04-23T09:53:21.429Z,1.70
2023-04-23T09:58:29.093Z,1.70
2023-04-23T10:03:34.144Z,1.90
2023-04-23T10:08:37.971Z,1.50
2023-04-23T10:13:41.439Z,1.23
2023-04-23T10:18:47.159Z,1.30
2023-04-23T10:23:53.561Z,1.58
2023-04-23T10:28:59.386Z,1.67
2023-04-23T10:34:06.949Z,1.42
2023-04-23T10:39:10.704Z,1.40
2023-04-23T10:44:17.222Z,1.25
2023-04-23T10:49:24.898Z,0.98
2023-04-23T10:54:31.993Z,1.20
2023-04-23T10:59:36.946Z,1.67
2023-04-23T11:04:48.095Z,1.55
2023-04-23T11:09:54.426Z,1.50
2023-04-23T11:14:59.718Z,1.20
2023-04-23T11:20:14.377Z,1.40
2023-04-23T11:25:21.676Z,1.50
2023-04-23T11:30:27.130Z,1.40
2023-04-23T11:35:39.797Z,1.60
2023-04-23T11:40:44.142Z,1.20
2023-04-23T11:45:48.557Z,1.20
2023-04-23T11:50:54.457Z,0.90
2023-04-23T11:55:59.805Z,1.20
2023-04-23T12:01:04.043Z,1.00
2023-04-23T12:06:12.638Z,0.98
2023-04-23T12:11:18.140Z,0.80
2023-04-23T12:16:38.970Z,1.10
2023-04-23T12:21:56.134Z,0.70
2023-04-23T12:27:02.715Z,0.82
2023-04-23T12:32:06.967Z,0.80
2023-04-23T12:37:13.516Z,0.90
2023-04-23T12:42:16.822Z,0.70
2023-04-23T12:47:20.632Z,0.60
2023-04-23T12:52:27.933Z,1.00
2023-04-23T12:57:32.636Z,0.90
2023-04-23T13:02:36.805Z,0.80
2023-04-23T13:07:42.968Z,0.80
2023-04-23T13:12:51.255Z,0.88
2023-04-23T13:17:55.573Z,1.00
2023-04-23T13:23:02.125Z,0.68
2023-04-23T13:28:05.906Z,0.90
2023-04-23T13:33:09.473Z,0.73
2023-04-23T13:38:15.249Z,0.90
2023-04-23T13:43:21.880Z,0.80
2023-04-23T13:48:31.111Z,1.10
2023-04-23T13:53:35.961Z,0.95
2023-04-23T13:58:43.181Z,0.90
2023-04-23T14:03:48.488Z,0.70
2023-04-23T14:08:55.793Z,0.70
2023-04-23T14:14:01.405Z,0.90
2023-04-23T14:19:04.958Z,1.10
2023-04-23T14:24:18.861Z,0.88
2023-04-23T14:29:32.860Z,0.75
2023-04-23T14:34:37.570Z,0.90
2023-04-23T14:39:43.113Z,0.88
2023-04-23T14:44:54.145Z,0.77
2023-04-23T14:50:01.221Z,0.93
2023-04-23T14:55:07.423Z,0.85
2023-04-23T15:00:13.473Z,0.70
2023-04-23T15:05:17.696Z,1.00
2023-04-23T15:10:28.694Z,1.00
2023-04-23T15:15:44.457Z,1.00
2023-04-23T15:20:50.813Z,1.10
2023-04-23T15:25:56.074Z,0.70
2023-04-23T15:31:17.895Z,0.75
2023-04-23T15:36:21.628Z,1.20
2023-04-23T15:41:39.410Z,1.10
2023-04-23T15:46:44.536Z,1.05
2023-04-23T15:51:48.746Z,0.88
2023-04-23T15:56:56.360Z,1.15
2023-04-23T16:02:00.066Z,1.00
2023-04-23T16:07:04.241Z,0.88
2023-04-23T16:12:10.705Z,0.95
2023-04-23T16:17:14.781Z,1.17
2023-04-23T16:22:21.001Z,0.90
2023-04-23T16:27:26.299Z,0.82
2023-04-23T16:32:30.245Z,0.90
2023-04-23T16:37:34.290Z,1.00
2023-04-23T16:42:41.873Z,0.90
2023-04-23T16:47:45.288Z,0.90
2023-04-23T16:52:49.697Z,1.40
2023-04-23T16:58:05.192Z,2.22
2023-04-23T17:03:08.771Z,1.40
2023-04-23T17:08:14.286Z,1.10
2023-04-23T17:13:19.415Z,1.05
2023-04-23T17:18:24.001Z,1.00
2023-04-23T17:23:27.625Z,1.00
2023-04-23T17:28:35.486Z,1.70
2023-04-23T17:33:39.122Z,1.00
2023-04-23T17:38:52.541Z,2.63
2023-04-23T17:43:57.824Z,1.60
2023-04-23T17:49:05.017Z,1.08
2023-04-23T17:54:10.805Z,2.25
2023-04-23T17:59:16.576Z,1.15
2023-04-23T18:04:24.209Z,0.93
2023-04-23T18:09:28.245Z,1.10
2023-04-23T18:14:33.987Z,1.25
2023-04-23T18:19:38.017Z,1.27
2023-04-23T18:24:42.167Z,1.10
2023-04-23T18:29:47.395Z,1.30
2023-04-23T18:34:51.108Z,1.20
2023-04-23T18:39:54.816Z,1.75
2023-04-23T18:45:00.516Z,1.17
2023-04-23T18:50:09.497Z,1.10
2023-04-23T18:55:12.931Z,1.30
2023-04-23T19:00:18.730Z,1.20
2023-04-23T19:05:22.524Z,2.47
2023-04-23T19:10:25.929Z,1.77
2023-04-23T19:15:30.738Z,1.50
2023-04-23T19:20:34.348Z,1.65
2023-04-23T19:25:38.209Z,4.15
2023-04-23T19:30:43.275Z,2.50
2023-04-23T19:35:47.756Z,1.20
2023-04-23T19:40:52.707Z,1.40
2023-04-23T19:45:58.078Z,1.25
2023-04-23T19:51:03.897Z,1.27
2023-04-23T19:56:13.109Z,1.35
2023-04-23T20:01:20.448Z,1.58
2023-04-23T20:06:24.334Z,1.70
2023-04-23T20:11:27.770Z,1.85
2023-04-23T20:16:32.938Z,2.20
2023-04-23T20:21:37.131Z,1.92
2023-04-23T20:26:42.431Z,2.50
2023-04-23T20:31:49.806Z,2.08
2023-04-23T20:36:53.475Z,2.15
2023-04-23T20:42:00.895Z,1.90
2023-04-23T20:47:08.514Z,2.00
2023-04-23T20:52:14.570Z,1.58
2023-04-23T20:57:18.542Z,1.80
2023-04-23T21:02:23.402Z,1.60
2023-04-23T21:07:27.442Z,1.52
2023-04-23T21:12:31.414Z,1.70
2023-04-23T21:17:36.264Z,1.60
2023-04-23T21:22:40.174Z,1.45
2023-04-23T21:27:45.978Z,1.70
2023-04-23T21:32:53.173Z,1.42
2023-04-23T21:37:56.865Z,1.90
2023-04-23T21:43:00.466Z,1.50
2023-04-23T21:48:06.026Z,1.40
2023-04-23T21:53:13.676Z,1.48
2023-04-23T21:58:18.685Z,1.30
2023-04-23T22:03:35.310Z,1.40
2023-04-23T22:08:41.717Z,1.40
2023-04-23T22:13:45.376Z,1.63
2023-04-23T22:18:50.578Z,1.63
2023-04-23T22:23:54.071Z,1.70
2023-04-23T22:28:57.502Z,1.30
2023-04-23T22:34:02.841Z,1.50
2023-04-23T22:39:06.689Z,1.30
2023-04-23T22:44:10.570Z,1.60
2023-04-23T22:49:15.824Z,1.42
2023-04-23T22:54:19.344Z,1.60
2023-04-23T22:59:23.327Z,1.73
2023-04-23T23:04:28.692Z,1.70
2023-04-23T23:09:32.634Z,1.70
2023-04-23T23:14:37.977Z,1.70
2023-04-23T23:20:09.031Z,1.70
2023-04-23T23:25:12.583Z,1.42
2023-04-23T23:30:16.497Z,1.15
2023-04-23T23:35:21.762Z,0.90
2023-04-23T23:40:25.451Z,0.95
2023-04-23T23:45:29.173Z,0.60
2023-04-23T23:50:34.463Z,0.70
2023-04-23T23:55:40.923Z,0.73
